Time;durP1;ratioP1;P1;durP2;ratioP2;P2;SDS_P1;SDS_P2;PMS_P1;PMS_P2;Temp;Humidity;BMP_temperature;BMP_pressure;BME280_temperature;BME280_humidity;BME280_pressure;Samples;Min_cycle;Max_cycle;Signal;HPM_P1;HPM_P2
2024/04/04 00:00:00;;;;;;;1816.17;776.33;;;11.90;91.90;;;;;;6128956;23;20183;-77
2024/04/04 00:02:26;;;;;;;1693.17;741.30;;;11.90;91.90;;;;;;6129108;23;20165;-77
2024/04/04 00:05:02;;;;;;;1999.90;999.90;;;11.90;91.90;;;;;;6128876;23;20162;-77
2024/04/04 00:07:27;;;;;;;1794.63;786.83;;;11.90;91.90;;;;;;6155164;23;20214;-77
2024/04/04 00:09:53;;;;;;;1868.10;786.30;;;12.00;91.90;;;;;;6129060;23;20262;-77
2024/04/04 00:12:20;;;;;;;1253.10;269.97;;;12.00;91.90;;;;;;6155006;23;20183;-77
2024/04/04 00:14:47;;;;;;;1402.67;299.77;;;12.00;91.90;;;;;;6128720;23;20158;-77
2024/04/04 00:17:13;;;;;;;1335.80;304.37;;;12.10;91.90;;;;;;6154414;23;20599;-77
2024/04/04 00:19:38;;;;;;;1828.13;774.13;;;12.10;91.80;;;;;;6155012;23;20233;-77
2024/04/04 00:22:04;;;;;;;1828.17;784.97;;;12.10;91.80;;;;;;6129174;23;20167;-77
2024/04/04 00:24:30;;;;;;;1746.60;755.10;;;12.10;91.80;;;;;;6128790;23;20158;-77
2024/04/04 00:26:56;;;;;;;1818.23;781.40;;;12.10;91.80;;;;;;6154189;23;20234;-77
2024/04/04 00:29:21;;;;;;;1717.37;740.93;;;12.10;92.20;;;;;;6128621;23;20206;-77
2024/04/04 00:31:47;;;;;;;1821.80;780.17;;;12.10;91.80;;;;;;6154791;23;20197;-77
2024/04/04 00:34:12;;;;;;;1880.83;800.27;;;12.20;91.90;;;;;;6128611;23;20154;-77
2024/04/04 00:36:38;;;;;;;1797.20;375.50;;;12.20;91.90;;;;;;6128231;23;20197;-78
2024/04/04 00:39:04;;;;;;;1400.47;342.63;;;12.20;91.90;;;;;;6154692;23;20173;-78
2024/04/04 00:41:30;;;;;;;1481.53;419.37;;;12.10;92.00;;;;;;6154790;23;20666;-77
2024/04/04 00:43:56;;;;;;;1336.20;428.33;;;12.20;92.00;;;;;;6155078;23;20151;-78
2024/04/04 00:46:23;;;;;;;1547.90;357.20;;;12.10;92.10;;;;;;6155102;23;20147;-77
2024/04/04 00:48:49;;;;;;;1846.17;537.83;;;12.20;92.20;;;;;;6154443;23;20221;-77
2024/04/04 00:51:14;;;;;;;1884.03;508.97;;;12.20;92.20;;;;;;6128637;23;20233;-77
2024/04/04 00:53:41;;;;;;;1583.97;365.07;;;12.20;92.30;;;;;;6154627;23;20654;-77
2024/04/04 00:56:06;;;;;;;1689.17;427.13;;;12.30;92.30;;;;;;6127826;23;20156;-77
2024/04/04 00:58:35;;;;;;;1267.17;284.47;;;12.30;92.40;;;;;;6128784;23;20241;-77
2024/04/04 01:01:01;;;;;;;1479.40;316.30;;;12.20;92.50;;;;;;6154551;23;20174;-77
2024/04/04 01:03:26;;;;;;;1975.93;615.20;;;12.20;92.80;;;;;;6128577;23;20682;-77
2024/04/04 01:05:52;;;;;;;1999.90;656.33;;;12.30;93.10;;;;;;6128356;23;20159;-77
2024/04/04 01:08:19;;;;;;;1797.67;524.47;;;12.30;93.40;;;;;;6154158;23;20158;-77
2024/04/04 01:10:44;;;;;;;1999.90;796.83;;;12.40;93.60;;;;;;6154431;23;20170;-77
2024/04/04 01:13:10;;;;;;;1911.20;672.50;;;12.50;93.70;;;;;;6154474;23;20494;-77
2024/04/04 01:15:36;;;;;;;1999.90;770.20;;;12.60;93.70;;;;;;6128633;23;20500;-78
2024/04/04 01:18:01;;;;;;;1954.10;539.70;;;12.60;93.80;;;;;;6153925;23;20153;-77
2024/04/04 01:20:27;;;;;;;1951.93;749.17;;;12.70;94.20;;;;;;6154672;23;20264;-77
2024/04/04 01:22:52;;;;;;;1999.90;709.10;;;12.80;94.30;;;;;;6128575;23;20162;-77
2024/04/04 01:25:18;;;;;;;1737.40;662.40;;;12.80;94.50;;;;;;6128802;23;20514;-77
2024/04/04 01:27:48;;;;;;;1999.90;746.57;;;12.90;94.60;;;;;;6153606;23;20586;-77
2024/04/04 01:30:14;;;;;;;1999.90;838.00;;;13.00;94.50;;;;;;6154565;23;20178;-77
2024/04/04 01:32:39;;;;;;;1998.73;863.87;;;13.00;94.40;;;;;;6128468;23;20209;-77
2024/04/04 01:35:05;;;;;;;1999.90;816.63;;;13.20;94.50;;;;;;6154276;23;20621;-77
2024/04/04 01:37:31;;;;;;;1858.07;631.63;;;13.20;94.40;;;;;;6153522;23;20198;-77
2024/04/04 01:39:56;;;;;;;1650.93;699.87;;;13.20;94.40;;;;;;6127881;23;20646;-77
2024/04/04 01:42:22;;;;;;;1999.90;853.27;;;13.30;94.50;;;;;;6175599;23;20158;-77
2024/04/04 01:44:48;;;;;;;1999.90;701.17;;;13.30;94.60;;;;;;6157360;23;20157;-76
2024/04/04 01:47:13;;;;;;;1815.77;642.83;;;13.40;94.60;;;;;;6139023;23;20174;-78
2024/04/04 01:49:39;;;;;;;1999.90;780.43;;;13.40;94.60;;;;;;6129632;23;20268;-77
2024/04/04 01:52:05;;;;;;;1983.57;507.20;;;13.50;94.70;;;;;;6129392;23;20181;-78
2024/04/04 01:54:30;;;;;;;1999.90;558.33;;;13.50;94.70;;;;;;6155899;23;20151;-77
2024/04/04 01:56:56;;;;;;;1999.90;840.00;;;13.50;94.70;;;;;;6154967;23;20151;-77
2024/04/04 01:59:21;;;;;;;1999.90;711.80;;;13.50;94.70;;;;;;6129415;23;20251;-78
2024/04/04 02:01:47;;;;;;;1999.90;563.07;;;13.60;94.70;;;;;;6155919;23;20539;-78
2024/04/04 02:04:13;;;;;;;1999.90;517.47;;;13.60;94.60;;;;;;6129694;23;20250;-78
2024/04/04 02:06:38;;;;;;;1999.90;636.57;;;13.70;94.60;;;;;;6128187;23;20190;-78
2024/04/04 02:09:04;;;;;;;1999.90;718.80;;;13.70;94.70;;;;;;6155530;23;20185;-78
2024/04/04 02:11:29;;;;;;;1617.43;525.23;;;13.60;94.70;;;;;;6155565;23;20150;-78
2024/04/04 02:13:56;;;;;;;1719.80;310.13;;;13.70;94.70;;;;;;6129264;23;20186;-77
2024/04/04 02:16:23;;;;;;;1999.90;421.90;;;13.70;94.70;;;;;;6155854;23;20190;-77
2024/04/04 02:18:51;;;;;;;1999.90;684.27;;;13.70;95.00;;;;;;6131173;23;20159;-77
2024/04/04 02:21:17;;;;;;;1539.60;399.93;;;13.70;94.70;;;;;;6157144;23;20143;-77
2024/04/04 02:23:42;;;;;;;1999.90;785.23;;;13.70;94.70;;;;;;6157318;23;20310;-77
2024/04/04 02:26:08;;;;;;;1999.90;395.37;;;13.70;94.70;;;;;;6156070;23;20553;-78
2024/04/04 02:28:34;;;;;;;1999.90;511.90;;;13.80;94.60;;;;;;6157312;23;20198;-78
2024/04/04 02:31:00;;;;;;;1989.67;571.13;;;13.80;94.60;;;;;;6130814;23;20186;-78
2024/04/04 02:33:26;;;;;;;1999.90;685.17;;;13.80;94.60;;;;;;6131036;23;20187;-77
2024/04/04 02:35:53;;;;;;;1999.90;575.93;;;13.80;94.60;;;;;;6157195;23;20238;-78
2024/04/04 02:38:18;;;;;;;1713.10;254.50;;;13.80;94.50;;;;;;6130185;23;20161;-77
2024/04/04 02:40:44;;;;;;;1704.00;307.33;;;13.90;94.50;;;;;;6130906;23;20182;-78
2024/04/04 02:43:10;;;;;;;1999.90;360.67;;;13.90;94.50;;;;;;6156789;23;20513;-78
2024/04/04 02:45:36;;;;;;;1999.90;549.73;;;13.90;94.50;;;;;;6156925;23;20188;-77
2024/04/04 02:48:01;;;;;;;1999.90;444.47;;;13.90;94.50;;;;;;6156121;23;20158;-78
2024/04/04 02:50:27;;;;;;;1983.80;502.23;;;13.90;94.40;;;;;;6157310;23;20229;-78
2024/04/04 02:52:53;;;;;;;1999.90;618.53;;;13.90;94.50;;;;;;6130474;23;20520;-77
2024/04/04 02:55:19;;;;;;;1999.90;735.43;;;13.90;94.50;;;;;;6156278;23;20181;-78
2024/04/04 02:57:45;;;;;;;1999.90;816.50;;;13.90;94.60;;;;;;6155702;23;20147;-78
2024/04/04 03:00:11;;;;;;;1999.90;630.67;;;13.90;94.60;;;;;;6129846;23;20185;-78
2024/04/04 03:02:37;;;;;;;1999.90;743.53;;;13.90;94.60;;;;;;6156964;23;20232;-77
2024/04/04 03:05:04;;;;;;;1999.90;834.53;;;13.90;94.70;;;;;;6130418;23;20165;-77
2024/04/04 03:07:29;;;;;;;1999.90;703.23;;;13.80;94.80;;;;;;6129338;23;20197;-78
2024/04/04 03:09:55;;;;;;;1999.90;904.77;;;13.80;94.90;;;;;;6130436;23;20178;-77
2024/04/04 03:12:21;;;;;;;1999.90;937.07;;;13.70;95.20;;;;;;6130524;23;20206;-78
2024/04/04 03:14:47;;;;;;;1999.90;879.17;;;13.70;95.00;;;;;;6130347;23;20487;-77
2024/04/04 03:17:12;;;;;;;1999.90;854.90;;;13.70;95.00;;;;;;6129691;23;20599;-78
2024/04/04 03:19:38;;;;;;;1999.90;859.80;;;13.70;95.30;;;;;;6125503;23;20644;-79
2024/04/04 03:22:04;;;;;;;1999.90;754.23;;;13.70;95.10;;;;;;6127501;23;20222;-78
2024/04/04 03:24:30;;;;;;;1999.90;872.53;;;13.70;95.10;;;;;;6127285;23;20187;-78
2024/04/04 03:26:56;;;;;;;1999.90;776.57;;;13.70;95.10;;;;;;6124190;23;20159;-78
2024/04/04 03:29:21;;;;;;;1999.90;916.77;;;13.70;95.10;;;;;;6125466;23;20666;-78
2024/04/04 03:31:47;;;;;;;1999.90;804.03;;;13.80;95.20;;;;;;6125961;23;20183;-78
2024/04/04 03:34:13;;;;;;;1999.90;900.47;;;13.80;95.20;;;;;;6127239;23;20152;-78
2024/04/04 03:36:41;;;;;;;1999.90;701.43;;;13.80;95.20;;;;;;6124856;23;20159;-78
2024/04/04 03:39:06;;;;;;;1999.90;780.37;;;13.80;95.50;;;;;;6125283;23;20175;-78
2024/04/04 03:41:33;;;;;;;1999.90;904.90;;;13.80;95.30;;;;;;6125601;23;20221;-77
2024/04/04 03:43:58;;;;;;;1999.90;838.50;;;13.80;95.30;;;;;;6125753;23;20201;-78
2024/04/04 03:46:24;;;;;;;1999.90;703.80;;;13.80;95.30;;;;;;6124118;23;20232;-77
2024/04/04 03:48:49;;;;;;;1636.30;579.63;;;13.80;95.30;;;;;;6125412;23;20163;-78
2024/04/04 03:51:15;;;;;;;1999.90;515.23;;;13.80;95.40;;;;;;6125362;23;20190;-77
2024/04/04 03:53:41;;;;;;;1999.90;829.07;;;13.80;95.40;;;;;;6127471;23;20190;-77
2024/04/04 03:56:06;;;;;;;1999.90;575.33;;;13.80;95.40;;;;;;6125187;23;20153;-77
2024/04/04 03:58:32;;;;;;;1999.90;782.93;;;13.80;95.50;;;;;;6125816;23;20234;-77
2024/04/04 04:00:57;;;;;;;1999.90;712.13;;;13.80;95.50;;;;;;6123948;23;20210;-77
2024/04/04 04:03:23;;;;;;;1950.67;350.73;;;13.80;95.50;;;;;;6125576;23;20166;-77
2024/04/04 04:05:50;;;;;;;1999.90;693.23;;;13.90;95.50;;;;;;6125361;23;20156;-78
2024/04/04 04:08:16;;;;;;;1999.90;760.77;;;13.90;95.60;;;;;;6124646;23;20222;-77
2024/04/04 04:10:42;;;;;;;1999.90;652.43;;;13.80;95.60;;;;;;6125604;23;20175;-77
2024/04/04 04:13:08;;;;;;;1999.90;711.50;;;13.90;95.60;;;;;;6125739;23;20182;-77
2024/04/04 04:15:34;;;;;;;1999.90;608.30;;;13.90;95.60;;;;;;6123864;23;20156;-77
2024/04/04 04:18:00;;;;;;;1999.90;562.43;;;13.90;95.60;;;;;;6124890;23;20615;-77
2024/04/04 04:23:09;;;;;;;1999.90;650.43;;;13.90;95.90;;;;;;6155313;23;20150;-78
2024/04/04 04:25:35;;;;;;;1840.87;509.67;;;13.90;95.50;;;;;;6129003;23;20166;-77
2024/04/04 04:28:01;;;;;;;1999.90;640.63;;;13.90;95.50;;;;;;6154444;23;20163;-78
2024/04/04 04:30:26;;;;;;;1999.90;497.10;;;13.90;95.50;;;;;;6128809;23;20261;-78
2024/04/04 04:32:52;;;;;;;1999.90;568.30;;;14.00;95.50;;;;;;6155198;23;20178;-77
2024/04/04 04:35:22;;;;;;;1999.90;999.90;;;14.00;95.50;;;;;;6129135;23;20169;-77
2024/04/04 04:37:48;;;;;;;1947.27;529.33;;;14.00;95.40;;;;;;6154434;23;20155;-77
2024/04/04 04:40:14;;;;;;;1999.90;567.33;;;14.00;95.40;;;;;;6154933;23;20171;-77
2024/04/04 04:42:39;;;;;;;1177.40;258.73;;;14.00;95.40;;;;;;6155146;23;20595;-78
2024/04/04 04:45:06;;;;;;;1326.63;432.20;;;14.00;95.30;;;;;;6129384;23;20158;-77
2024/04/04 04:47:32;;;;;;;1693.77;386.97;;;14.00;95.30;;;;;;6128045;23;20176;-77
2024/04/04 04:49:57;;;;;;;1999.90;999.90;;;14.00;95.20;;;;;;6155130;23;20201;-77
2024/04/04 04:52:23;;;;;;;1999.90;772.10;;;14.00;95.20;;;;;;6128883;23;20209;-77
2024/04/04 04:54:49;;;;;;;1999.90;569.10;;;13.90;95.20;;;;;;6155612;23;20196;-77
2024/04/04 04:57:15;;;;;;;1091.63;243.63;;;13.90;95.20;;;;;;6155348;23;20158;-78
2024/04/04 04:59:40;;;;;;;1794.67;759.57;;;14.00;95.20;;;;;;6156027;23;20245;-77
2024/04/04 05:02:06;;;;;;;1214.37;264.37;;;14.00;95.20;;;;;;6158914;23;20479;-79
2024/04/04 05:04:32;;;;;;;1459.87;250.03;;;14.00;95.10;;;;;;6159122;23;20222;-79
2024/04/04 05:06:57;;;;;;;1999.90;999.90;;;14.00;95.10;;;;;;6132397;23;20603;-80
2024/04/04 05:09:23;;;;;;;1550.47;503.27;;;14.00;95.00;;;;;;6133177;23;20179;-79
2024/04/04 05:11:49;;;;;;;1900.47;752.67;;;14.00;95.00;;;;;;6136409;23;20225;-79
2024/04/04 05:14:14;;;;;;;1237.37;300.90;;;14.00;94.90;;;;;;6134544;23;20166;-80
2024/04/04 05:16:43;;;;;;;1999.90;999.90;;;14.00;94.90;;;;;;6133041;23;20138;-79
2024/04/04 05:19:09;;;;;;;1992.80;795.30;;;14.00;94.80;;;;;;6128286;23;20194;-78
2024/04/04 05:21:34;;;;;;;1375.93;501.77;;;14.10;94.80;;;;;;6130227;23;20135;-78
2024/04/04 05:24:01;;;;;;;1999.90;999.90;;;14.10;94.80;;;;;;6130251;23;20143;-79
2024/04/04 05:26:27;;;;;;;1121.43;228.10;;;14.10;94.70;;;;;;6130159;23;20158;-79
2024/04/04 05:28:55;;;;;;;1999.90;804.57;;;14.10;94.70;;;;;;6128236;23;20183;-80
2024/04/04 05:31:21;;;;;;;1462.07;350.40;;;14.10;94.70;;;;;;6129646;23;20151;-79
2024/04/04 05:33:47;;;;;;;1714.97;759.93;;;14.10;94.80;;;;;;6129457;23;20373;-79
2024/04/04 05:36:13;;;;;;;1999.90;521.37;;;14.10;94.80;;;;;;6128516;23;20147;-79
2024/04/04 05:38:38;;;;;;;1751.50;281.43;;;14.20;94.80;;;;;;6130798;23;20588;-79
2024/04/04 05:41:09;;;;;;;1999.90;557.97;;;14.20;94.70;;;;;;6128542;23;20218;-79
2024/04/04 05:43:35;;;;;;;1873.03;459.10;;;14.20;94.80;;;;;;6128889;23;20155;-79
2024/04/04 05:46:01;;;;;;;1999.90;627.03;;;14.20;94.80;;;;;;6126458;23;20247;-79
2024/04/04 05:48:27;;;;;;;1999.90;791.43;;;14.20;94.80;;;;;;6128448;23;20490;-78
2024/04/04 05:51:03;;;;;;;1999.90;650.03;;;14.20;94.80;;;;;;6129220;23;20179;-79
2024/04/04 05:53:30;;;;;;;1999.90;810.13;;;14.20;94.80;;;;;;6130729;23;20167;-79
2024/04/04 05:55:55;;;;;;;1999.90;727.50;;;14.20;94.80;;;;;;6132199;23;20136;-78
2024/04/04 05:58:21;;;;;;;1999.90;486.77;;;14.20;94.80;;;;;;6130062;23;20227;-79
2024/04/04 06:00:47;;;;;;;1999.90;781.93;;;14.20;94.80;;;;;;6131893;23;20678;-79
2024/04/04 06:03:13;;;;;;;1999.90;629.43;;;14.20;94.90;;;;;;6131339;23;20161;-79
2024/04/04 06:05:39;;;;;;;1999.90;775.43;;;14.30;94.90;;;;;;6131545;23;20151;-79
2024/04/04 06:08:05;;;;;;;1999.90;765.43;;;14.20;94.90;;;;;;6129634;23;20242;-79
2024/04/04 06:10:31;;;;;;;1999.90;620.53;;;14.20;95.00;;;;;;6130996;23;20191;-79
2024/04/04 06:12:56;;;;;;;1999.90;747.80;;;14.20;95.00;;;;;;6131838;23;20171;-79
2024/04/04 06:15:22;;;;;;;1999.90;604.33;;;14.20;95.00;;;;;;6130064;23;20201;-79
2024/04/04 06:17:48;;;;;;;1999.90;853.43;;;14.20;95.10;;;;;;6131276;23;20195;-79
2024/04/04 06:20:14;;;;;;;1999.90;797.53;;;14.20;95.20;;;;;;6150602;23;20569;-79
2024/04/04 06:22:39;;;;;;;1999.90;772.73;;;14.20;95.30;;;;;;6135303;23;20166;-79
2024/04/04 06:25:05;;;;;;;1999.90;858.13;;;14.20;95.30;;;;;;6134993;23;20171;-79
2024/04/04 06:27:30;;;;;;;1999.90;598.60;;;14.30;95.30;;;;;;6160805;23;20159;-79
2024/04/04 06:29:56;;;;;;;1999.90;772.40;;;14.30;95.30;;;;;;6135509;23;20179;-79
2024/04/04 06:32:22;;;;;;;1952.53;593.53;;;14.30;95.30;;;;;;6161790;23;20175;-79
2024/04/04 06:34:47;;;;;;;1999.90;628.43;;;14.30;95.30;;;;;;6160735;23;20208;-79
2024/04/04 06:37:16;;;;;;;1999.90;745.60;;;14.40;95.40;;;;;;6160374;23;20159;-80
2024/04/04 06:39:43;;;;;;;1999.90;651.83;;;14.40;95.40;;;;;;6135583;23;20178;-79
2024/04/04 06:42:08;;;;;;;1999.90;540.80;;;14.50;95.40;;;;;;6161804;23;20171;-79
2024/04/04 06:44:34;;;;;;;1999.90;642.67;;;14.50;95.40;;;;;;6136028;23;20167;-79
2024/04/04 06:46:59;;;;;;;1999.90;781.73;;;14.60;95.40;;;;;;6134588;23;20159;-79
2024/04/04 06:49:25;;;;;;;1999.90;750.53;;;14.60;95.30;;;;;;6161413;23;20322;-79
2024/04/04 06:51:53;;;;;;;1999.90;359.47;;;14.70;95.30;;;;;;6135141;23;20658;-79
2024/04/04 06:54:19;;;;;;;1999.90;437.57;;;14.70;95.30;;;;;;6135374;23;20156;-79
2024/04/04 06:56:44;;;;;;;1728.07;272.43;;;14.80;95.20;;;;;;6134430;23;20155;-79
2024/04/04 06:59:10;;;;;;;1951.47;517.03;;;14.80;95.20;;;;;;6134681;23;20507;-79
2024/04/04 07:01:35;;;;;;;1970.37;426.37;;;14.80;95.20;;;;;;6134864;23;20210;-79
2024/04/04 07:04:01;;;;;;;1948.57;398.73;;;14.90;95.10;;;;;;6134869;23;20159;-79
2024/04/04 07:06:27;;;;;;;1999.90;572.63;;;14.90;95.00;;;;;;6133709;23;20209;-79
2024/04/04 07:08:54;;;;;;;1841.60;783.37;;;15.00;94.80;;;;;;6160955;23;20152;-79
2024/04/04 07:11:21;;;;;;;1999.90;999.90;;;15.00;94.90;;;;;;6134783;23;20154;-79
2024/04/04 07:13:46;;;;;;;1574.40;395.17;;;15.00;94.80;;;;;;6135432;23;20230;-79
2024/04/04 07:16:12;;;;;;;1999.90;814.43;;;14.90;94.70;;;;;;6134435;23;20159;-79
2024/04/04 07:18:38;;;;;;;1828.47;786.97;;;14.90;94.80;;;;;;6135760;23;20155;-79
2024/04/04 07:21:06;;;;;;;1799.20;732.70;;;14.90;94.70;;;;;;6158292;23;20643;-71
2024/04/04 07:23:35;;;;;;;1999.90;999.90;;;14.80;94.70;;;;;;6155091;23;20159;-71
2024/04/04 07:26:01;;;;;;;1999.90;478.37;;;14.80;94.70;;;;;;6153777;23;20157;-71
2024/04/04 07:28:26;;;;;;;1999.90;583.30;;;14.90;94.80;;;;;;6155000;23;20165;-70
2024/04/04 07:30:52;;;;;;;1857.77;777.00;;;14.90;94.80;;;;;;6154847;23;20176;-71
2024/04/04 07:33:18;;;;;;;1831.67;779.63;;;14.80;94.80;;;;;;6128892;23;20494;-71
2024/04/04 07:35:44;;;;;;;1699.03;738.33;;;14.80;94.80;;;;;;6128644;23;20593;-71
2024/04/04 07:38:12;;;;;;;1999.90;451.57;;;14.80;94.90;;;;;;6154057;23;20155;-71
2024/04/04 07:40:38;;;;;;;1999.90;561.50;;;14.70;94.90;;;;;;6154518;23;20201;-72
2024/04/04 07:43:06;;;;;;;1805.03;349.50;;;14.70;94.90;;;;;;6154959;23;20233;-71
2024/04/04 07:45:35;;;;;;;1497.07;266.77;;;14.70;94.90;;;;;;6128804;23;20156;-71
2024/04/04 07:48:01;;;;;;;1999.90;692.37;;;14.70;95.00;;;;;;6154088;23;20158;-70
2024/04/04 07:50:27;;;;;;;1999.90;581.07;;;14.80;95.00;;;;;;6154795;23;20176;-70
2024/04/04 07:52:53;;;;;;;1999.90;999.90;;;14.70;94.90;;;;;;6154888;23;20294;-70
2024/04/04 07:55:19;;;;;;;1716.47;755.50;;;14.80;94.70;;;;;;6154752;23;20157;-71
2024/04/04 07:57:44;;;;;;;1999.90;605.70;;;14.80;94.70;;;;;;6154111;23;20155;-71
2024/04/04 08:00:13;;;;;;;1999.90;999.90;;;14.90;94.60;;;;;;6154541;23;20485;-71
2024/04/04 08:02:40;;;;;;;1999.90;999.90;;;15.00;94.40;;;;;;6154851;23;20481;-71
2024/04/04 08:05:05;;;;;;;1991.07;548.07;;;15.00;94.30;;;;;;6154687;23;20150;-70
2024/04/04 08:07:36;;;;;;;1999.90;999.90;;;15.00;94.30;;;;;;6153922;23;20165;-71
2024/04/04 08:10:06;;;;;;;1999.90;999.90;;;15.00;94.30;;;;;;6128497;23;20148;-70
2024/04/04 08:12:36;;;;;;;1279.60;253.47;;;14.90;94.40;;;;;;6154537;23;20174;-70
2024/04/04 08:15:03;;;;;;;1999.90;804.37;;;14.90;94.50;;;;;;6154530;23;20471;-71
2024/04/04 08:17:33;;;;;;;1999.90;423.87;;;14.80;93.90;;;;;;6153892;23;20151;-71
2024/04/04 08:19:59;;;;;;;1999.90;999.90;;;14.80;94.10;;;;;;6154540;23;20179;-71
2024/04/04 08:22:25;;;;;;;1930.17;525.63;;;14.80;94.10;;;;;;6154510;23;20627;-71
2024/04/04 08:24:51;;;;;;;1999.90;459.47;;;14.80;93.90;;;;;;6128485;23;20159;-71
2024/04/04 08:27:20;;;;;;;1999.90;999.90;;;14.80;93.70;;;;;;6153798;23;20173;-71
2024/04/04 08:29:49;;;;;;;1999.90;859.67;;;14.80;93.80;;;;;;6154453;23;20202;-71
2024/04/04 08:32:16;;;;;;;1999.90;999.90;;;14.80;93.80;;;;;;6154285;23;20190;-70
2024/04/04 08:34:42;;;;;;;1999.90;852.97;;;14.70;93.70;;;;;;6154408;23;20147;-70
2024/04/04 08:37:08;;;;;;;1944.13;284.70;;;14.70;93.80;;;;;;6153480;23;20152;-70
2024/04/04 08:39:33;;;;;;;1999.90;999.90;;;14.60;93.80;;;;;;6154237;23;20155;-71
2024/04/04 08:41:59;;;;;;;1999.90;999.90;;;14.60;93.70;;;;;;6128446;23;20229;-70
2024/04/04 08:44:26;;;;;;;1999.90;999.90;;;14.60;93.90;;;;;;6154527;23;20156;-70
2024/04/04 08:46:53;;;;;;;1978.93;769.93;;;14.60;93.90;;;;;;6153518;23;20487;-72
2024/04/04 08:49:20;;;;;;;1581.80;492.27;;;14.60;94.00;;;;;;6154403;23;20159;-71
2024/04/04 08:51:47;;;;;;;1885.40;286.70;;;14.70;94.00;;;;;;6127772;23;20513;-70
2024/04/04 08:54:17;;;;;;;1977.23;418.87;;;14.70;94.00;;;;;;6128357;23;20159;-71
2024/04/04 08:56:44;;;;;;;1999.90;999.90;;;14.70;94.00;;;;;;6153350;23;20219;-70
2024/04/04 08:59:10;;;;;;;1829.87;411.20;;;14.70;94.10;;;;;;6154496;23;20158;-71
2024/04/04 09:01:36;;;;;;;1999.90;490.07;;;14.70;94.10;;;;;;6154013;23;20171;-70
2024/04/04 09:04:01;;;;;;;1999.90;722.20;;;14.70;94.60;;;;;;6154376;23;20154;-70
2024/04/04 09:06:27;;;;;;;1999.90;999.90;;;14.70;94.20;;;;;;6153214;23;20151;-70
2024/04/04 09:08:58;;;;;;;1999.90;779.00;;;14.60;94.20;;;;;;6154295;23;20147;-70
2024/04/04 09:11:28;;;;;;;1999.90;800.77;;;14.70;94.40;;;;;;6153871;23;20198;-70
2024/04/04 09:14:04;;;;;;;1999.90;877.87;;;14.60;94.20;;;;;;6154419;23;20179;-70
2024/04/04 09:16:29;;;;;;;1914.93;525.03;;;14.80;94.40;;;;;;6153295;23;20147;-71
2024/04/04 09:19:16;;;;;;;1999.90;575.97;;;14.90;94.30;;;;;;6128243;23;20489;-70
2024/04/04 09:21:44;;;;;;;1736.83;746.00;;;15.00;94.30;;;;;;6122567;23;20202;-70
2024/04/04 09:24:13;;;;;;;1999.90;999.90;;;15.20;94.00;;;;;;6125029;23;20658;-70
2024/04/04 09:26:40;;;;;;;1999.90;790.43;;;15.40;94.10;;;;;;6123686;23;20213;-71
2024/04/04 09:29:06;;;;;;;1999.90;999.90;;;15.60;93.80;;;;;;6124700;23;20148;-71
2024/04/04 09:31:36;;;;;;;1999.90;999.90;;;15.80;93.20;;;;;;6124443;23;20172;-71
2024/04/04 09:34:02;;;;;;;1988.77;525.73;;;16.00;92.80;;;;;;6124875;23;20162;-71
2024/04/04 09:36:30;;;;;;;1999.90;999.90;;;16.20;92.80;;;;;;6123761;23;20228;-71
2024/04/04 09:38:58;;;;;;;1768.23;473.10;;;16.50;92.70;;;;;;6123103;23;20165;-71
2024/04/04 09:41:23;;;;;;;1999.90;999.90;;;16.60;91.90;;;;;;6122802;23;20183;-72
2024/04/04 09:43:50;;;;;;;1999.90;999.90;;;16.60;91.80;;;;;;6124930;23;20161;-71
2024/04/04 09:46:20;;;;;;;1999.90;999.90;;;16.50;91.50;;;;;;6123410;23;20168;-70
2024/04/04 09:48:47;;;;;;;1999.90;999.90;;;16.50;91.70;;;;;;6124839;23;20162;-70
2024/04/04 09:51:14;;;;;;;1999.90;999.90;;;16.50;91.40;;;;;;6124258;23;20643;-71
2024/04/04 09:53:40;;;;;;;1999.90;999.90;;;16.40;91.60;;;;;;6124450;23;20174;-72
2024/04/04 09:56:08;;;;;;;1999.90;999.90;;;16.40;91.40;;;;;;6122156;23;20173;-71
2024/04/04 09:58:35;;;;;;;1999.90;999.90;;;16.40;91.40;;;;;;6123053;23;20618;-71
2024/04/04 10:01:34;;;;;;;1999.90;999.90;;;16.50;91.50;;;;;;6124509;23;20174;-71
2024/04/04 10:04:00;;;;;;;1999.90;999.90;;;16.40;91.30;;;;;;6108185;23;20159;-70
2024/04/04 10:06:40;;;;;;;1999.90;999.90;;;16.40;91.30;;;;;;6123626;23;20601;-71
2024/04/04 10:09:23;;;;;;;1999.90;999.90;;;16.30;91.40;;;;;;6125186;23;20242;-71
2024/04/04 10:11:49;;;;;;;1999.90;999.90;;;16.20;91.30;;;;;;6124750;23;20196;-71
2024/04/04 10:14:22;;;;;;;1999.90;999.90;;;16.10;91.20;;;;;;6123839;23;20240;-71
2024/04/04 10:16:52;;;;;;;1999.90;999.90;;;15.90;91.20;;;;;;6122504;23;20192;-71
2024/04/04 10:19:20;;;;;;;1999.90;999.90;;;15.80;91.30;;;;;;6125045;23;20139;-71
2024/04/04 10:21:46;;;;;;;1999.90;999.90;;;15.70;91.40;;;;;;6144681;23;20638;-70
2024/04/04 10:24:31;;;;;;;1999.90;999.90;;;15.70;91.60;;;;;;6154495;23;20240;-70
2024/04/04 10:27:00;;;;;;;1999.90;999.90;;;15.60;91.60;;;;;;6153539;23;20143;-71
2024/04/04 10:29:35;;;;;;;1978.10;723.43;;;15.60;91.50;;;;;;6154263;23;20172;-71
2024/04/04 10:32:02;;;;;;;1999.90;999.90;;;15.50;91.50;;;;;;6128150;23;20210;-72
2024/04/04 10:34:28;;;;;;;1676.00;691.97;;;15.50;91.50;;;;;;6154738;23;20149;-71
2024/04/04 10:36:54;;;;;;;1999.90;999.90;;;15.50;91.30;;;;;;6154235;23;20162;-70
2024/04/04 10:39:22;;;;;;;1999.90;999.90;;;15.40;91.30;;;;;;6129808;23;20166;-71
2024/04/04 10:41:56;;;;;;;944.50;372.40;;;15.40;91.50;;;;;;6156041;23;20244;-71
2024/04/04 10:44:23;;;;;;;1999.90;999.90;;;15.40;91.50;;;;;;6156381;23;20513;-71
2024/04/04 10:46:50;;;;;;;1999.90;999.90;;;15.50;91.50;;;;;;6155131;23;20176;-70
2024/04/04 10:49:18;;;;;;;1999.90;999.90;;;15.40;91.50;;;;;;6129859;23;20163;-70
2024/04/04 10:51:55;;;;;;;1999.90;999.90;;;15.40;91.50;;;;;;6129803;23;20183;-71
2024/04/04 10:54:22;;;;;;;1999.90;999.90;;;15.40;91.70;;;;;;6156271;23;20136;-71
2024/04/04 10:56:48;;;;;;;1999.90;999.90;;;15.40;91.60;;;;;;6154971;23;20151;-70
2024/04/04 10:59:17;;;;;;;1999.90;999.90;;;15.30;91.70;;;;;;6155854;23;20155;-71
2024/04/04 11:01:50;;;;;;;1999.90;999.90;;;15.20;91.80;;;;;;6155844;23;20168;-71
2024/04/04 11:04:18;;;;;;;1393.93;674.67;;;15.20;91.80;;;;;;6155945;23;20467;-70
2024/04/04 11:06:45;;;;;;;1999.90;999.90;;;15.20;91.80;;;;;;6155155;23;20210;-72
2024/04/04 11:09:15;;;;;;;1999.90;999.90;;;15.20;91.70;;;;;;6129634;23;20169;-70
2024/04/04 11:11:46;;;;;;;1999.90;999.90;;;15.10;91.70;;;;;;6156252;23;20171;-71
2024/04/04 11:14:12;;;;;;;1999.90;999.90;;;15.10;91.80;;;;;;6155831;23;20691;-71
2024/04/04 11:16:39;;;;;;;1999.90;999.90;;;15.10;91.80;;;;;;6128748;23;20159;-70
2024/04/04 11:19:09;;;;;;;1999.90;999.90;;;15.10;91.90;;;;;;6155819;23;20235;-71
2024/04/04 11:21:35;;;;;;;1999.90;999.90;;;15.20;91.90;;;;;;6155524;23;20186;-71
2024/04/04 11:24:01;;;;;;;1999.90;999.90;;;15.40;91.90;;;;;;6155886;23;20153;-71
2024/04/04 11:26:27;;;;;;;1999.90;999.90;;;15.50;91.70;;;;;;6154594;23;20170;-71
2024/04/04 11:28:53;;;;;;;1567.77;722.70;;;15.50;91.70;;;;;;6155834;23;20166;-71
2024/04/04 11:31:19;;;;;;;1999.90;999.90;;;15.70;91.70;;;;;;6129464;23;20517;-71
2024/04/04 11:33:45;;;;;;;1999.90;999.90;;;15.90;91.60;;;;;;6129501;23;20206;-71
2024/04/04 11:36:11;;;;;;;1999.90;999.90;;;15.90;91.40;;;;;;6154571;23;20158;-71
2024/04/04 11:38:37;;;;;;;1999.90;999.90;;;16.00;91.40;;;;;;6155535;23;20187;-71
2024/04/04 11:41:03;;;;;;;1999.90;999.90;;;16.10;91.30;;;;;;6155311;23;20173;-71
2024/04/04 11:43:29;;;;;;;1999.90;999.90;;;16.20;91.00;;;;;;6155867;23;20606;-70
2024/04/04 11:45:55;;;;;;;1356.30;670.97;;;16.40;91.00;;;;;;6155725;23;20136;-71
2024/04/04 11:48:21;;;;;;;1999.90;999.90;;;16.70;90.80;;;;;;6128251;23;20164;-71
2024/04/04 11:50:46;;;;;;;1686.87;708.30;;;16.90;90.60;;;;;;6155370;23;20486;-70
2024/04/04 11:53:13;;;;;;;1999.90;999.90;;;17.10;90.20;;;;;;6155530;23;20172;-71
2024/04/04 11:55:42;;;;;;;858.70;355.07;;;17.30;89.30;;;;;;6129296;23;20173;-71
2024/04/04 11:58:09;;;;;;;1999.90;999.90;;;17.40;89.30;;;;;;6154317;23;20493;-71